createdAt,value
2022-10-26T00:01:14.281Z,100519.31
2022-10-26T00:03:43.143Z,100537.50
2022-10-26T00:06:13.399Z,100522.03
2022-10-26T00:08:41.372Z,100518.59
2022-10-26T00:11:08.913Z,100516.78
2022-10-26T00:13:37.235Z,100520.31
2022-10-26T00:16:16.947Z,100511.47
2022-10-26T00:18:48.501Z,100515.19
2022-10-26T00:21:16.350Z,100501.94
2022-10-26T00:23:45.216Z,100500.81
2022-10-26T00:26:12.695Z,100486.72
2022-10-26T00:28:40.474Z,100486.72
2022-10-26T00:31:15.610Z,100485.03
2022-10-26T00:33:42.916Z,100470.66
2022-10-26T00:36:10.856Z,100471.78
2022-10-26T00:38:38.327Z,100460.97
2022-10-26T00:41:06.138Z,100462.94
2022-10-26T00:43:35.658Z,100447.47
2022-10-26T00:46:06.894Z,100455.84
2022-10-26T00:48:41.368Z,100452.28
2022-10-26T00:51:39.089Z,100447.03
2022-10-26T00:54:11.957Z,100445.03
2022-10-26T00:56:40.113Z,100453.13
2022-10-26T00:59:10.498Z,100456.84
2022-10-26T01:01:40.172Z,100455.13
2022-10-26T01:04:07.623Z,100455.25
2022-10-26T01:06:38.091Z,100444.72
2022-10-26T01:09:05.737Z,100439.75
2022-10-26T01:11:33.062Z,100438.84
2022-10-26T01:14:05.038Z,100426.34
2022-10-26T01:16:42.789Z,100423.19
2022-10-26T01:19:28.551Z,100415.06
2022-10-26T01:22:03.509Z,100415.34
2022-10-26T01:25:01.856Z,100414.75
2022-10-26T01:27:52.646Z,100413.31
2022-10-26T01:30:25.315Z,100411.16
2022-10-26T01:33:10.688Z,100409.31
2022-10-26T01:36:25.970Z,100401.63
2022-10-26T01:38:57.339Z,100396.22
2022-10-26T01:41:38.204Z,100398.78
2022-10-26T01:44:10.972Z,100390.22
2022-10-26T01:46:44.122Z,100384.81
2022-10-26T01:49:13.177Z,100386.09
2022-10-26T01:51:44.205Z,100386.94
2022-10-26T01:54:11.616Z,100385.09
2022-10-26T01:56:45.327Z,100382.38
2022-10-26T01:59:40.434Z,100372.88
2022-10-26T02:02:45.191Z,100370.47
2022-10-26T02:05:19.744Z,100370.47
2022-10-26T02:08:14.614Z,100367.78
2022-10-26T02:10:47.704Z,100364.09
2022-10-26T02:13:30.062Z,100366.53
2022-10-26T02:16:07.367Z,100360.97
2022-10-26T02:18:40.997Z,100363.38
2022-10-26T02:21:20.787Z,100363.38
2022-10-26T02:23:49.316Z,100356.28
2022-10-26T02:26:19.597Z,100365.09
2022-10-26T02:28:51.738Z,100359.53
2022-10-26T02:31:19.870Z,100350.59
2022-10-26T02:36:27.516Z,100353.19
2022-10-26T02:38:56.066Z,100358.56
2022-10-26T02:41:26.910Z,100349.50
2022-10-26T02:44:00.654Z,100350.06
2022-10-26T02:46:28.420Z,100339.22
2022-10-26T02:48:56.164Z,100344.22
2022-10-26T02:51:44.779Z,100344.22
2022-10-26T02:54:26.930Z,100334.16
2022-10-26T02:57:16.222Z,100330.59
2022-10-26T02:59:47.622Z,100337.56
2022-10-26T03:02:19.446Z,100334.88
2022-10-26T03:04:49.340Z,100328.59
2022-10-26T03:07:24.334Z,100327.16
2022-10-26T03:09:53.012Z,100335.03
2022-10-26T03:12:20.639Z,100338.34
2022-10-26T03:14:48.647Z,100334.28
2022-10-26T03:17:16.765Z,100328.88
2022-10-26T03:19:44.906Z,100331.28
2022-10-26T03:22:12.377Z,100326.03
2022-10-26T03:24:40.521Z,100330.44
2022-10-26T03:27:07.889Z,100326.03
2022-10-26T03:29:35.133Z,100320.66
2022-10-26T03:32:02.316Z,100313.59
2022-10-26T03:34:30.157Z,100321.22
2022-10-26T03:36:57.410Z,100315.81
2022-10-26T03:39:24.629Z,100313.81
2022-10-26T03:44:19.141Z,100319.09
2022-10-26T03:46:46.410Z,100316.09
2022-10-26T03:49:13.601Z,100308.72
2022-10-26T03:51:41.618Z,100313.97
2022-10-26T03:54:09.118Z,100310.44
2022-10-26T03:56:36.570Z,100311.28
2022-10-26T03:59:04.211Z,100307.59
2022-10-26T04:01:32.042Z,100305.59
2022-10-26T04:04:01.487Z,100306.47
2022-10-26T04:06:28.963Z,100307.31
2022-10-26T04:09:02.443Z,100302.63
2022-10-26T04:11:30.076Z,100294.25
2022-10-26T04:13:59.808Z,100304.19
2022-10-26T04:16:31.047Z,100296.94
2022-10-26T04:19:02.278Z,100293.28
2022-10-26T04:21:29.898Z,100292.13
2022-10-26T04:23:57.103Z,100290.16
2022-10-26T04:26:26.476Z,100292.69
2022-10-26T04:28:53.873Z,100288.16
2022-10-26T04:31:21.405Z,100288.16
2022-10-26T04:33:48.686Z,100280.78
2022-10-26T04:36:15.858Z,100289.56
2022-10-26T04:38:44.309Z,100282.31
2022-10-26T04:41:11.771Z,100286.88
2022-10-26T04:43:41.498Z,100278.66
2022-10-26T04:46:11.251Z,100274.09
2022-10-26T04:48:40.756Z,100278.50
2022-10-26T04:51:08.028Z,100271.66
2022-10-26T04:53:35.899Z,100275.38
2022-10-26T04:56:03.455Z,100276.09
2022-10-26T04:58:31.143Z,100273.25
2022-10-26T05:00:58.570Z,100279.66
2022-10-26T05:03:26.062Z,100287.34
2022-10-26T05:05:53.733Z,100285.31
2022-10-26T05:08:21.267Z,100285.22
2022-10-26T05:10:50.148Z,100291.31
2022-10-26T05:13:23.410Z,100283.94
2022-10-26T05:15:53.990Z,100287.47
2022-10-26T05:18:22.049Z,100284.63
2022-10-26T05:20:54.336Z,100286.22
2022-10-26T05:23:22.149Z,100268.25
2022-10-26T05:25:49.966Z,100281.50
2022-10-26T05:28:18.877Z,100283.06
2022-10-26T05:30:49.474Z,100284.63
2022-10-26T05:33:19.242Z,100283.50
2022-10-26T05:35:47.656Z,100290.47
2022-10-26T05:38:16.957Z,100284.75
2022-10-26T05:40:52.360Z,100285.50
2022-10-26T05:43:21.111Z,100287.91
2022-10-26T05:45:50.246Z,100286.59
2022-10-26T05:48:17.787Z,100286.47
2022-10-26T05:50:45.390Z,100291.59
2022-10-26T05:53:13.055Z,100294.84
2022-10-26T05:55:41.053Z,100283.06
2022-10-26T05:58:17.260Z,100282.75
2022-10-26T06:01:11.606Z,100282.31
2022-10-26T06:04:02.373Z,100287.44
2022-10-26T06:06:40.446Z,100285.31
2022-10-26T06:09:13.886Z,100283.47
2022-10-26T06:11:41.597Z,100275.91
2022-10-26T06:14:10.128Z,100279.34
2022-10-26T06:17:19.681Z,100283.44
2022-10-26T06:20:14.259Z,100286.00
2022-10-26T06:22:51.056Z,100282.13
2022-10-26T06:25:48.466Z,100281.16
2022-10-26T06:28:51.089Z,100279.91
2022-10-26T06:31:18.993Z,100280.59
2022-10-26T06:33:46.718Z,100288.44
2022-10-26T06:36:23.339Z,100285.72
2022-10-26T06:39:06.123Z,100287.25
2022-10-26T06:41:34.993Z,100287.13
2022-10-26T06:44:03.503Z,100290.41
2022-10-26T06:46:46.406Z,100294.66
2022-10-26T06:49:26.544Z,100290.66
2022-10-26T06:52:07.218Z,100286.81
2022-10-26T06:54:43.986Z,100287.38
2022-10-26T06:57:13.296Z,100294.19
2022-10-26T06:59:51.000Z,100292.06
2022-10-26T07:02:18.854Z,100290.19
2022-10-26T07:04:46.692Z,100299.72
2022-10-26T07:07:16.695Z,100295.00
2022-10-26T07:09:44.431Z,100292.00
2022-10-26T07:12:14.347Z,100282.59
2022-10-26T07:14:42.185Z,100285.69
2022-10-26T07:17:10.244Z,100292.34
2022-10-26T07:19:37.578Z,100293.94
2022-10-26T07:22:04.877Z,100291.91
2022-10-26T07:24:33.217Z,100287.38
2022-10-26T07:27:00.505Z,100288.22
2022-10-26T07:29:28.011Z,100292.63
2022-10-26T07:31:55.667Z,100297.19
2022-10-26T07:34:28.611Z,100294.19
2022-10-26T07:36:55.995Z,100297.88
2022-10-26T07:39:26.702Z,100288.78
2022-10-26T07:41:54.353Z,100297.44
2022-10-26T07:44:22.365Z,100292.72
2022-10-26T07:46:52.806Z,100288.84
2022-10-26T07:49:20.754Z,100289.84
2022-10-26T07:51:49.487Z,100296.00
2022-10-26T07:54:16.717Z,100297.84
2022-10-26T07:56:44.170Z,100292.44
2022-10-26T07:59:14.335Z,100294.69
2022-10-26T08:01:43.001Z,100300.50
2022-10-26T08:04:12.301Z,100294.78
2022-10-26T08:06:43.783Z,100303.59
2022-10-26T08:09:17.009Z,100301.06
2022-10-26T08:11:46.915Z,100302.75
2022-10-26T08:14:16.476Z,100304.59
2022-10-26T08:16:46.428Z,100305.63
2022-10-26T08:19:14.913Z,100303.88
2022-10-26T08:21:45.662Z,100317.59
2022-10-26T08:27:01.965Z,100319.28
2022-10-26T08:29:30.251Z,100316.59
2022-10-26T08:32:01.575Z,100316.28
2022-10-26T08:34:34.649Z,100319.84
2022-10-26T08:37:04.828Z,100310.72
2022-10-26T08:39:34.007Z,100324.81
2022-10-26T08:42:16.591Z,100325.38
2022-10-26T08:44:55.872Z,100320.22
2022-10-26T08:47:32.847Z,100329.41
2022-10-26T08:50:10.380Z,100329.28
2022-10-26T08:52:50.806Z,100328.84
2022-10-26T08:55:25.826Z,100324.66
2022-10-26T08:57:54.285Z,100333.91
2022-10-26T09:00:23.837Z,100333.28
2022-10-26T09:02:56.201Z,100331.97
2022-10-26T09:05:41.478Z,100331.38
2022-10-26T09:08:26.767Z,100327.63
2022-10-26T09:11:19.838Z,100334.16
2022-10-26T09:13:51.249Z,100331.09
2022-10-26T09:16:40.834Z,100333.34
2022-10-26T09:19:23.815Z,100333.22
2022-10-26T09:22:07.992Z,100339.66
2022-10-26T09:24:40.462Z,100340.34
2022-10-26T09:27:35.170Z,100341.91
2022-10-26T09:33:20.844Z,100341.72
2022-10-26T09:36:03.140Z,100344.28
2022-10-26T09:38:34.167Z,100337.69
2022-10-26T09:44:43.043Z,100346.63
2022-10-26T09:47:34.930Z,100351.50
2022-10-26T09:50:29.890Z,100356.53
2022-10-26T09:52:58.668Z,100355.84
2022-10-26T09:55:27.838Z,100349.88
2022-10-26T09:58:01.777Z,100349.16
2022-10-26T10:03:36.208Z,100349.78
2022-10-26T10:09:15.624Z,100351.31
2022-10-26T10:12:02.805Z,100357.75
2022-10-26T10:14:37.477Z,100355.03
2022-10-26T10:17:20.233Z,100356.91
2022-10-26T10:19:51.973Z,100358.22
2022-10-26T10:22:26.880Z,100358.34
2022-10-26T10:25:42.946Z,100357.50
2022-10-26T10:28:29.379Z,100369.50
2022-10-26T10:31:22.976Z,100365.41
2022-10-26T10:33:54.503Z,100367.22
2022-10-26T10:40:05.730Z,100382.09
2022-10-26T10:42:36.390Z,100373.22
2022-10-26T10:48:26.574Z,100367.09
2022-10-26T10:51:01.278Z,100366.47
2022-10-26T10:53:35.397Z,100365.31
2022-10-26T10:56:24.061Z,100366.47
2022-10-26T10:59:11.041Z,100372.91
2022-10-26T11:01:43.693Z,100363.25
2022-10-26T11:04:17.559Z,100363.75
2022-10-26T11:06:47.359Z,100368.88
2022-10-26T11:09:22.428Z,100375.31
2022-10-26T11:11:54.805Z,100368.59
2022-10-26T11:14:31.796Z,100369.75
2022-10-26T11:17:38.886Z,100368.59
2022-10-26T11:20:19.640Z,100372.31
2022-10-26T11:22:53.600Z,100369.75
2022-10-26T11:25:35.246Z,100373.47
2022-10-26T11:28:35.765Z,100378.66
2022-10-26T11:31:08.633Z,100380.50
2022-10-26T11:33:41.928Z,100386.69
2022-10-26T11:36:25.144Z,100393.00
2022-10-26T11:41:55.309Z,100397.47
2022-10-26T11:44:30.136Z,100400.44
2022-10-26T11:47:26.910Z,100395.19
2022-10-26T11:50:12.206Z,100401.63
2022-10-26T11:52:55.815Z,100406.59
2022-10-26T11:55:33.082Z,100408.13
2022-10-26T11:58:08.998Z,100411.41
2022-10-26T12:00:49.881Z,100410.84
2022-10-26T12:03:30.359Z,100411.28
2022-10-26T12:06:01.065Z,100414.88
2022-10-26T12:08:31.271Z,100411.78
2022-10-26T12:11:26.330Z,100415.06
2022-10-26T12:14:29.209Z,100420.66
2022-10-26T12:20:08.413Z,100433.47
2022-10-26T12:22:43.972Z,100426.34
2022-10-26T12:25:28.652Z,100438.03
2022-10-26T12:28:08.833Z,100442.59
2022-10-26T12:30:45.853Z,100447.72
2022-10-26T12:33:30.538Z,100449.28
2022-10-26T12:39:00.631Z,100453.84
2022-10-26T12:41:33.378Z,100460.25
2022-10-26T12:44:07.510Z,100455.13
2022-10-26T12:46:40.305Z,100462.16
2022-10-26T12:50:03.950Z,100462.00
2022-10-26T12:53:17.595Z,100464.56
2022-10-26T12:55:52.420Z,100460.72
2022-10-26T12:58:33.781Z,100462.28
2022-10-26T13:01:01.745Z,100459.88
2022-10-26T13:04:20.426Z,100465.28
2022-10-26T13:07:42.273Z,100464.72
2022-10-26T13:11:11.890Z,100461.56
2022-10-26T13:13:45.389Z,100467.09
2022-10-26T13:16:54.770Z,100466.38
2022-10-26T13:19:53.509Z,100471.66
2022-10-26T13:22:48.089Z,100476.19
2022-10-26T13:25:37.941Z,100476.91
2022-10-26T14:08:21.951Z,100500.81
2022-10-26T14:11:02.453Z,100502.53
2022-10-26T14:13:36.314Z,100506.22
2022-10-26T14:16:12.867Z,100505.53
2022-10-26T14:18:53.398Z,100501.97
2022-10-26T14:21:52.351Z,100503.09
2022-10-26T14:24:35.927Z,100507.66
2022-10-26T14:27:41.838Z,100506.06
2022-10-26T14:39:52.080Z,100514.88
2022-10-26T14:42:41.262Z,100507.66
2022-10-26T14:45:49.460Z,100527.28
2022-10-26T14:48:23.039Z,100522.13
2022-10-26T14:51:13.191Z,100525.69
2022-10-26T14:53:58.441Z,100528.53
2022-10-26T14:56:36.691Z,100535.66
2022-10-26T14:59:12.339Z,100549.47
2022-10-26T15:02:01.145Z,100539.50
2022-10-26T15:04:39.097Z,100556.59
2022-10-26T15:07:20.405Z,100543.78
2022-10-26T15:09:49.577Z,100541.38
2022-10-26T15:12:44.741Z,100550.19
2022-10-26T15:17:55.502Z,100560.84
2022-10-26T15:20:28.626Z,100556.31
2022-10-26T15:23:03.741Z,100554.47
2022-10-26T15:26:02.945Z,100562.44
2022-10-26T15:32:03.315Z,100562.84
2022-10-26T15:34:38.398Z,100566.56
2022-10-26T15:37:14.328Z,100572.81
2022-10-26T15:39:44.508Z,100579.06
2022-10-26T15:42:16.392Z,100582.78
2022-10-26T15:44:53.349Z,100588.03
2022-10-26T15:47:35.062Z,100589.91
2022-10-26T15:50:03.093Z,100583.63
2022-10-26T15:52:46.685Z,100585.34
2022-10-26T15:55:27.593Z,100586.34
2022-10-26T15:57:57.599Z,100597.84
2022-10-26T16:00:25.128Z,100593.44
2022-10-26T16:03:04.941Z,100595.31
2022-10-26T16:05:36.907Z,100589.91
2022-10-26T16:08:17.750Z,100597.84
2022-10-26T16:10:56.915Z,100601.41
2022-10-26T16:13:28.616Z,100598.72
2022-10-26T16:16:07.096Z,100604.13
2022-10-26T16:19:06.156Z,100604.72
2022-10-26T16:21:43.110Z,100602.00
2022-10-26T16:24:34.324Z,100603.00
2022-10-26T16:27:02.616Z,100600.16
2022-10-26T16:32:22.936Z,100600.03
2022-10-26T16:34:51.520Z,100605.56
2022-10-26T16:37:22.229Z,100602.72
2022-10-26T16:42:52.240Z,100609.00
2022-10-26T16:45:23.276Z,100608.16
2022-10-26T16:47:52.980Z,100601.16
2022-10-26T16:50:26.339Z,100615.25
2022-10-26T16:58:15.986Z,100604.72
2022-10-26T17:00:43.995Z,100605.72
2022-10-26T17:03:13.352Z,100610.41
2022-10-26T17:05:41.082Z,100607.81
2022-10-26T17:08:08.948Z,100604.25
2022-10-26T17:10:39.064Z,100604.25
2022-10-26T17:13:11.360Z,100605.97
2022-10-26T17:15:38.774Z,100607.81
2022-10-26T17:18:11.133Z,100611.53
2022-10-26T17:20:53.468Z,100607.13
2022-10-26T17:23:22.851Z,100606.13
2022-10-26T17:25:54.290Z,100607.13
2022-10-26T17:28:22.370Z,100601.72
2022-10-26T17:30:50.874Z,100596.31
2022-10-26T17:33:18.656Z,100599.84
2022-10-26T17:35:46.217Z,100590.91
2022-10-26T17:38:13.865Z,100593.72
2022-10-26T17:40:50.364Z,100589.31
2022-10-26T17:43:45.332Z,100591.16
2022-10-26T17:46:35.112Z,100600.13
2022-10-26T19:01:28.378Z,100654.94
2022-10-26T19:07:07.450Z,100658.63
2022-10-26T19:10:06.454Z,100660.34
2022-10-26T19:12:35.451Z,100661.19
2022-10-26T19:15:03.287Z,100661.31
2022-10-26T19:17:47.590Z,100665.03
2022-10-26T19:20:19.735Z,100661.31
2022-10-26T19:22:57.546Z,100668.56
2022-10-26T19:25:30.483Z,100665.28
2022-10-26T19:28:06.984Z,100665.28
2022-10-26T19:31:13.783Z,100673.53
2022-10-26T19:34:00.856Z,100681.06
2022-10-26T19:36:45.718Z,100676.78
2022-10-26T19:39:20.142Z,100683.16
2022-10-26T19:41:47.936Z,100684.03
2022-10-26T19:44:19.693Z,100676.91
2022-10-26T19:47:01.423Z,100686.00
2022-10-26T19:49:39.177Z,100680.59
2022-10-26T19:55:05.600Z,100687.00
2022-10-26T19:57:35.440Z,100685.16
2022-10-26T20:00:06.304Z,100698.44
2022-10-26T20:02:49.817Z,100690.16
2022-10-26T20:05:19.449Z,100696.28
2022-10-26T20:07:50.561Z,100692.72
2022-10-26T20:10:18.004Z,100690.03
2022-10-26T20:12:52.559Z,100697.53
2022-10-26T20:15:21.303Z,100704.34
2022-10-26T20:17:50.886Z,100706.75
2022-10-26T20:20:20.259Z,100704.41
2022-10-26T20:22:59.868Z,100705.53
2022-10-26T20:25:29.451Z,100713.25
2022-10-26T20:28:01.786Z,100704.16
2022-10-26T20:30:32.715Z,100721.97
2022-10-26T20:33:03.830Z,100720.97
2022-10-26T20:35:32.791Z,100705.84
2022-10-26T20:38:01.210Z,100714.72
2022-10-26T20:40:29.163Z,100709.16
2022-10-26T20:42:58.375Z,100709.28
2022-10-26T20:45:31.249Z,100720.13
2022-10-26T20:48:47.054Z,100717.66
2022-10-26T20:52:08.592Z,100727.16
2022-10-26T20:58:23.750Z,100723.50
2022-10-26T21:00:56.732Z,100718.72
2022-10-26T21:03:24.014Z,100728.41
2022-10-26T21:05:52.265Z,100723.88
2022-10-26T21:08:20.194Z,100725.47
2022-10-26T21:10:50.257Z,100720.16
2022-10-26T21:13:19.061Z,100720.91
2022-10-26T21:15:46.614Z,100735.97
2022-10-26T21:18:13.980Z,100720.75
2022-10-26T21:20:41.721Z,100726.16
2022-10-26T21:23:09.122Z,100733.56
2022-10-26T21:25:37.103Z,100731.13
2022-10-26T21:28:06.797Z,100732.97
2022-10-26T21:30:34.158Z,100734.06
2022-10-26T21:33:02.111Z,100732.38
2022-10-26T21:35:29.613Z,100748.97
2022-10-26T21:37:57.219Z,100745.41
2022-10-26T21:40:24.696Z,100754.38
2022-10-26T21:42:53.749Z,100746.28
2022-10-26T21:45:22.665Z,100749.81
2022-10-26T21:47:53.725Z,100751.78
2022-10-26T21:50:21.136Z,100731.91
2022-10-26T21:52:53.523Z,100755.22
2022-10-26T21:55:21.020Z,100753.53
2022-10-26T21:57:49.383Z,100762.50
2022-10-26T22:00:17.118Z,100767.91
2022-10-26T22:02:44.564Z,100768.88
2022-10-26T22:05:11.822Z,100759.19
2022-10-26T22:07:39.165Z,100762.88
2022-10-26T22:10:11.272Z,100770.97
2022-10-26T22:12:39.034Z,100776.63
2022-10-26T22:15:06.967Z,100769.63
2022-10-26T22:17:43.740Z,100781.44
2022-10-26T22:20:12.025Z,100776.28
2022-10-26T22:22:39.362Z,100777.03
2022-10-26T22:25:07.144Z,100779.72
2022-10-26T22:27:34.637Z,100775.56
2022-10-26T22:30:04.151Z,100775.31
2022-10-26T22:32:32.259Z,100798.19
2022-10-26T22:35:10.915Z,100797.31
2022-10-26T22:37:45.012Z,100793.88
2022-10-26T22:40:12.654Z,100798.28
2022-10-26T22:42:39.919Z,100800.25
2022-10-26T22:45:31.369Z,100804.22
2022-10-26T22:48:01.741Z,100799.03
2022-10-26T22:50:38.560Z,100801.88
2022-10-26T22:53:06.048Z,100801.88
2022-10-26T22:55:33.473Z,100803.13
2022-10-26T22:58:00.746Z,100789.72
2022-10-26T23:00:28.066Z,100794.16
2022-10-26T23:02:55.895Z,100797.47
2022-10-26T23:05:23.116Z,100806.44
2022-10-26T23:07:50.488Z,100799.28
2022-10-26T23:10:18.817Z,100805.19
2022-10-26T23:12:46.121Z,100804.81
2022-10-26T23:15:13.743Z,100818.03
2022-10-26T23:17:41.134Z,100804.53
2022-10-26T23:20:09.013Z,100805.81
2022-10-26T23:22:37.202Z,100805.66
2022-10-26T23:25:04.725Z,100801.25
2022-10-26T23:27:32.021Z,100796.81
2022-10-26T23:29:59.994Z,100806.91
2022-10-26T23:32:27.367Z,100804.22
2022-10-26T23:34:54.945Z,100801.66
2022-10-26T23:37:22.400Z,100796.50
2022-10-26T23:39:49.616Z,100805.44
2022-10-26T23:42:19.292Z,100811.56
2022-10-26T23:44:46.579Z,100800.03
2022-10-26T23:47:14.005Z,100809.84
2022-10-26T23:49:41.212Z,100799.19
2022-10-26T23:52:08.638Z,100812.56
2022-10-26T23:54:36.965Z,100806.44
2022-10-26T23:57:04.257Z,100809.75
2022-10-26T23:59:31.494Z,100807.16
